sensor_id;sensor_type;location;lat;lon;timestamp;P1;durP1;ratioP1;P2;durP2;ratioP2
37047;SDS011;23227;48.780;9.210;2023-02-05T00:01:59;15.63;;;6.17;;
37047;SDS011;23227;48.780;9.210;2023-02-05T00:08:05;12.53;;;5.40;;
37047;SDS011;23227;48.780;9.210;2023-02-05T00:11:08;19.77;;;6.57;;
37047;SDS011;23227;48.780;9.210;2023-02-05T00:14:11;21.50;;;6.17;;
37047;SDS011;23227;48.780;9.210;2023-02-05T00:17:15;18.00;;;6.43;;
37047;SDS011;23227;48.780;9.210;2023-02-05T00:20:18;15.70;;;5.30;;
37047;SDS011;23227;48.780;9.210;2023-02-05T00:23:20;24.17;;;6.67;;
37047;SDS011;23227;48.780;9.210;2023-02-05T00:26:23;17.90;;;6.37;;
37047;SDS011;23227;48.780;9.210;2023-02-05T00:29:26;14.80;;;5.50;;
37047;SDS011;23227;48.780;9.210;2023-02-05T00:32:30;16.97;;;5.77;;
37047;SDS011;23227;48.780;9.210;2023-02-05T00:35:32;20.53;;;6.50;;
37047;SDS011;23227;48.780;9.210;2023-02-05T00:38:36;12.65;;;5.30;;
37047;SDS011;23227;48.780;9.210;2023-02-05T00:41:39;18.80;;;6.53;;
37047;SDS011;23227;48.780;9.210;2023-02-05T00:44:41;15.07;;;5.50;;
37047;SDS011;23227;48.780;9.210;2023-02-05T00:47:45;13.63;;;5.87;;
37047;SDS011;23227;48.780;9.210;2023-02-05T00:50:49;15.07;;;5.73;;
37047;SDS011;23227;48.780;9.210;2023-02-05T00:53:52;11.77;;;5.57;;
37047;SDS011;23227;48.780;9.210;2023-02-05T00:56:54;12.63;;;5.33;;
37047;SDS011;23227;48.780;9.210;2023-02-05T00:59:57;14.47;;;5.23;;
37047;SDS011;23227;48.780;9.210;2023-02-05T01:03:01;14.87;;;5.97;;
37047;SDS011;23227;48.780;9.210;2023-02-05T01:06:04;18.70;;;6.53;;
37047;SDS011;23227;48.780;9.210;2023-02-05T01:09:07;14.80;;;6.10;;
37047;SDS011;23227;48.780;9.210;2023-02-05T01:12:10;14.83;;;5.97;;
37047;SDS011;23227;48.780;9.210;2023-02-05T01:15:14;18.00;;;6.43;;
37047;SDS011;23227;48.780;9.210;2023-02-05T01:18:18;17.20;;;5.77;;
37047;SDS011;23227;48.780;9.210;2023-02-05T01:21:21;16.87;;;6.20;;
37047;SDS011;23227;48.780;9.210;2023-02-05T01:27:27;17.50;;;6.07;;
37047;SDS011;23227;48.780;9.210;2023-02-05T01:30:30;17.17;;;5.40;;
37047;SDS011;23227;48.780;9.210;2023-02-05T01:33:34;14.37;;;5.90;;
37047;SDS011;23227;48.780;9.210;2023-02-05T01:36:36;17.73;;;5.57;;
37047;SDS011;23227;48.780;9.210;2023-02-05T01:39:39;16.67;;;6.07;;
37047;SDS011;23227;48.780;9.210;2023-02-05T01:42:42;12.83;;;5.33;;
37047;SDS011;23227;48.780;9.210;2023-02-05T01:45:59;20.20;;;5.77;;
37047;SDS011;23227;48.780;9.210;2023-02-05T01:49:09;25.27;;;7.27;;
37047;SDS011;23227;48.780;9.210;2023-02-05T01:52:14;13.73;;;5.63;;
37047;SDS011;23227;48.780;9.210;2023-02-05T01:55:18;12.27;;;5.72;;
37047;SDS011;23227;48.780;9.210;2023-02-05T01:58:22;18.05;;;6.82;;
37047;SDS011;23227;48.780;9.210;2023-02-05T02:01:25;17.63;;;6.20;;
37047;SDS011;23227;48.780;9.210;2023-02-05T02:04:31;11.43;;;4.90;;
37047;SDS011;23227;48.780;9.210;2023-02-05T02:07:37;15.17;;;5.70;;
37047;SDS011;23227;48.780;9.210;2023-02-05T02:10:40;15.13;;;5.40;;
37047;SDS011;23227;48.780;9.210;2023-02-05T02:13:45;33.23;;;6.47;;
37047;SDS011;23227;48.780;9.210;2023-02-05T02:19:55;10.43;;;4.80;;
37047;SDS011;23227;48.780;9.210;2023-02-05T02:23:02;16.40;;;6.90;;
37047;SDS011;23227;48.780;9.210;2023-02-05T02:26:15;16.83;;;6.07;;
37047;SDS011;23227;48.780;9.210;2023-02-05T02:29:32;12.53;;;5.30;;
37047;SDS011;23227;48.780;9.210;2023-02-05T02:32:37;13.50;;;5.90;;
37047;SDS011;23227;48.780;9.210;2023-02-05T02:35:43;14.63;;;5.57;;
37047;SDS011;23227;48.780;9.210;2023-02-05T02:38:49;13.57;;;5.90;;
37047;SDS011;23227;48.780;9.210;2023-02-05T02:41:55;13.87;;;5.93;;
37047;SDS011;23227;48.780;9.210;2023-02-05T02:45:06;16.70;;;6.07;;
37047;SDS011;23227;48.780;9.210;2023-02-05T02:48:10;14.03;;;5.97;;
37047;SDS011;23227;48.780;9.210;2023-02-05T02:51:13;13.60;;;6.17;;
37047;SDS011;23227;48.780;9.210;2023-02-05T02:54:17;11.93;;;6.40;;
37047;SDS011;23227;48.780;9.210;2023-02-05T02:57:23;14.80;;;6.10;;
37047;SDS011;23227;48.780;9.210;2023-02-05T03:00:28;12.20;;;5.80;;
37047;SDS011;23227;48.780;9.210;2023-02-05T03:03:33;12.60;;;5.67;;
37047;SDS011;23227;48.780;9.210;2023-02-05T03:06:37;13.13;;;6.03;;
37047;SDS011;23227;48.780;9.210;2023-02-05T03:09:42;13.40;;;6.18;;
37047;SDS011;23227;48.780;9.210;2023-02-05T03:12:48;13.07;;;6.03;;
37047;SDS011;23227;48.780;9.210;2023-02-05T03:15:52;14.53;;;7.00;;
37047;SDS011;23227;48.780;9.210;2023-02-05T03:18:55;10.83;;;5.90;;
37047;SDS011;23227;48.780;9.210;2023-02-05T03:22:00;11.18;;;6.35;;
37047;SDS011;23227;48.780;9.210;2023-02-05T03:25:05;11.43;;;5.40;;
37047;SDS011;23227;48.780;9.210;2023-02-05T03:28:08;18.38;;;7.07;;
37047;SDS011;23227;48.780;9.210;2023-02-05T03:31:12;12.15;;;5.93;;
37047;SDS011;23227;48.780;9.210;2023-02-05T03:34:20;10.87;;;6.13;;
37047;SDS011;23227;48.780;9.210;2023-02-05T03:37:30;11.20;;;5.63;;
37047;SDS011;23227;48.780;9.210;2023-02-05T03:40:41;11.93;;;5.70;;
37047;SDS011;23227;48.780;9.210;2023-02-05T03:43:48;14.97;;;6.07;;
37047;SDS011;23227;48.780;9.210;2023-02-05T03:46:58;13.27;;;6.17;;
37047;SDS011;23227;48.780;9.210;2023-02-05T03:50:06;17.43;;;6.13;;
37047;SDS011;23227;48.780;9.210;2023-02-05T03:53:16;18.40;;;7.20;;
37047;SDS011;23227;48.780;9.210;2023-02-05T03:56:23;13.23;;;6.23;;
37047;SDS011;23227;48.780;9.210;2023-02-05T03:59:28;15.33;;;6.43;;
37047;SDS011;23227;48.780;9.210;2023-02-05T04:02:33;12.70;;;6.07;;
37047;SDS011;23227;48.780;9.210;2023-02-05T04:05:36;12.97;;;6.07;;
37047;SDS011;23227;48.780;9.210;2023-02-05T04:08:39;17.20;;;6.40;;
37047;SDS011;23227;48.780;9.210;2023-02-05T04:11:44;17.10;;;6.83;;
37047;SDS011;23227;48.780;9.210;2023-02-05T04:14:47;13.20;;;5.23;;
37047;SDS011;23227;48.780;9.210;2023-02-05T04:17:51;15.03;;;6.97;;
37047;SDS011;23227;48.780;9.210;2023-02-05T04:20:53;24.73;;;6.43;;
37047;SDS011;23227;48.780;9.210;2023-02-05T04:23:57;13.43;;;6.28;;
37047;SDS011;23227;48.780;9.210;2023-02-05T04:26:59;12.80;;;5.63;;
37047;SDS011;23227;48.780;9.210;2023-02-05T04:30:02;14.32;;;6.05;;
37047;SDS011;23227;48.780;9.210;2023-02-05T04:33:08;19.13;;;6.70;;
37047;SDS011;23227;48.780;9.210;2023-02-05T04:36:11;15.90;;;5.60;;
37047;SDS011;23227;48.780;9.210;2023-02-05T04:42:18;11.33;;;4.97;;
37047;SDS011;23227;48.780;9.210;2023-02-05T04:45:20;13.93;;;6.53;;
37047;SDS011;23227;48.780;9.210;2023-02-05T04:48:25;18.98;;;7.78;;
37047;SDS011;23227;48.780;9.210;2023-02-05T04:54:30;18.20;;;5.13;;
37047;SDS011;23227;48.780;9.210;2023-02-05T04:57:33;18.17;;;6.25;;
37047;SDS011;23227;48.780;9.210;2023-02-05T05:00:36;14.00;;;5.37;;
37047;SDS011;23227;48.780;9.210;2023-02-05T05:03:40;16.37;;;6.07;;
37047;SDS011;23227;48.780;9.210;2023-02-05T05:06:43;13.93;;;5.93;;
37047;SDS011;23227;48.780;9.210;2023-02-05T05:09:46;13.50;;;5.23;;
37047;SDS011;23227;48.780;9.210;2023-02-05T05:12:49;11.02;;;5.15;;
37047;SDS011;23227;48.780;9.210;2023-02-05T05:15:53;13.38;;;4.90;;
37047;SDS011;23227;48.780;9.210;2023-02-05T05:18:57;15.98;;;5.15;;
37047;SDS011;23227;48.780;9.210;2023-02-05T05:22:00;15.07;;;5.70;;
37047;SDS011;23227;48.780;9.210;2023-02-05T05:25:04;13.77;;;5.38;;
37047;SDS011;23227;48.780;9.210;2023-02-05T05:28:07;12.75;;;4.93;;
37047;SDS011;23227;48.780;9.210;2023-02-05T05:31:11;10.83;;;4.50;;
37047;SDS011;23227;48.780;9.210;2023-02-05T05:34:18;15.17;;;4.70;;
37047;SDS011;23227;48.780;9.210;2023-02-05T05:37:21;10.87;;;4.90;;
37047;SDS011;23227;48.780;9.210;2023-02-05T05:40:23;15.17;;;5.27;;
37047;SDS011;23227;48.780;9.210;2023-02-05T05:43:43;12.40;;;4.90;;
37047;SDS011;23227;48.780;9.210;2023-02-05T05:46:49;12.20;;;4.57;;
37047;SDS011;23227;48.780;9.210;2023-02-05T05:49:54;16.50;;;4.65;;
37047;SDS011;23227;48.780;9.210;2023-02-05T05:52:56;18.23;;;5.43;;
37047;SDS011;23227;48.780;9.210;2023-02-05T05:55:59;17.47;;;7.23;;
37047;SDS011;23227;48.780;9.210;2023-02-05T05:59:02;12.10;;;4.70;;
37047;SDS011;23227;48.780;9.210;2023-02-05T06:02:05;9.02;;;4.88;;
37047;SDS011;23227;48.780;9.210;2023-02-05T06:05:09;12.52;;;5.25;;
37047;SDS011;23227;48.780;9.210;2023-02-05T06:08:12;15.53;;;5.07;;
37047;SDS011;23227;48.780;9.210;2023-02-05T06:11:16;14.20;;;5.13;;
37047;SDS011;23227;48.780;9.210;2023-02-05T06:14:19;13.23;;;5.33;;
37047;SDS011;23227;48.780;9.210;2023-02-05T06:17:22;10.37;;;5.23;;
37047;SDS011;23227;48.780;9.210;2023-02-05T06:20:26;18.23;;;5.80;;
37047;SDS011;23227;48.780;9.210;2023-02-05T06:23:28;14.17;;;5.77;;
37047;SDS011;23227;48.780;9.210;2023-02-05T06:26:31;14.00;;;5.47;;
37047;SDS011;23227;48.780;9.210;2023-02-05T06:29:34;18.33;;;5.97;;
37047;SDS011;23227;48.780;9.210;2023-02-05T06:32:36;13.27;;;5.90;;
37047;SDS011;23227;48.780;9.210;2023-02-05T06:35:41;17.87;;;6.03;;
37047;SDS011;23227;48.780;9.210;2023-02-05T06:38:43;20.67;;;6.13;;
37047;SDS011;23227;48.780;9.210;2023-02-05T06:41:46;14.07;;;5.88;;
37047;SDS011;23227;48.780;9.210;2023-02-05T06:44:49;14.47;;;5.40;;
37047;SDS011;23227;48.780;9.210;2023-02-05T06:47:52;13.23;;;6.37;;
37047;SDS011;23227;48.780;9.210;2023-02-05T06:50:57;13.07;;;6.20;;
37047;SDS011;23227;48.780;9.210;2023-02-05T06:54:00;12.17;;;6.17;;
37047;SDS011;23227;48.780;9.210;2023-02-05T06:57:03;16.27;;;5.63;;
37047;SDS011;23227;48.780;9.210;2023-02-05T07:00:06;15.10;;;6.13;;
37047;SDS011;23227;48.780;9.210;2023-02-05T07:03:09;16.60;;;5.77;;
37047;SDS011;23227;48.780;9.210;2023-02-05T07:06:13;16.40;;;6.10;;
37047;SDS011;23227;48.780;9.210;2023-02-05T07:09:16;18.57;;;6.63;;
37047;SDS011;23227;48.780;9.210;2023-02-05T07:12:19;13.77;;;5.43;;
37047;SDS011;23227;48.780;9.210;2023-02-05T07:15:22;14.73;;;5.50;;
37047;SDS011;23227;48.780;9.210;2023-02-05T07:18:25;15.87;;;5.83;;
37047;SDS011;23227;48.780;9.210;2023-02-05T07:21:30;16.97;;;6.27;;
37047;SDS011;23227;48.780;9.210;2023-02-05T07:24:33;15.67;;;5.00;;
37047;SDS011;23227;48.780;9.210;2023-02-05T07:27:35;16.30;;;6.37;;
37047;SDS011;23227;48.780;9.210;2023-02-05T07:30:38;14.30;;;5.20;;
37047;SDS011;23227;48.780;9.210;2023-02-05T07:33:41;13.02;;;5.72;;
37047;SDS011;23227;48.780;9.210;2023-02-05T07:36:45;16.02;;;6.60;;
37047;SDS011;23227;48.780;9.210;2023-02-05T07:39:51;16.17;;;5.90;;
37047;SDS011;23227;48.780;9.210;2023-02-05T07:42:54;14.30;;;5.77;;
37047;SDS011;23227;48.780;9.210;2023-02-05T07:45:56;11.70;;;5.60;;
37047;SDS011;23227;48.780;9.210;2023-02-05T07:48:59;14.82;;;6.00;;
37047;SDS011;23227;48.780;9.210;2023-02-05T07:52:04;15.25;;;6.00;;
37047;SDS011;23227;48.780;9.210;2023-02-05T07:55:08;13.27;;;6.60;;
37047;SDS011;23227;48.780;9.210;2023-02-05T07:58:11;19.10;;;5.97;;
37047;SDS011;23227;48.780;9.210;2023-02-05T08:01:14;10.32;;;5.80;;
37047;SDS011;23227;48.780;9.210;2023-02-05T08:04:17;15.33;;;6.20;;
37047;SDS011;23227;48.780;9.210;2023-02-05T08:07:21;11.13;;;5.25;;
37047;SDS011;23227;48.780;9.210;2023-02-05T08:10:24;11.73;;;5.20;;
37047;SDS011;23227;48.780;9.210;2023-02-05T08:13:35;13.27;;;6.20;;
37047;SDS011;23227;48.780;9.210;2023-02-05T08:16:38;14.70;;;5.77;;
37047;SDS011;23227;48.780;9.210;2023-02-05T08:19:41;16.10;;;7.07;;
37047;SDS011;23227;48.780;9.210;2023-02-05T08:22:45;11.63;;;6.20;;
37047;SDS011;23227;48.780;9.210;2023-02-05T08:25:51;15.93;;;5.50;;
37047;SDS011;23227;48.780;9.210;2023-02-05T08:28:54;15.43;;;6.13;;
37047;SDS011;23227;48.780;9.210;2023-02-05T08:31:57;11.67;;;5.80;;
37047;SDS011;23227;48.780;9.210;2023-02-05T08:35:00;14.53;;;5.93;;
37047;SDS011;23227;48.780;9.210;2023-02-05T08:38:04;18.23;;;6.40;;
37047;SDS011;23227;48.780;9.210;2023-02-05T08:41:08;14.13;;;6.47;;
37047;SDS011;23227;48.780;9.210;2023-02-05T08:44:13;11.67;;;5.43;;
37047;SDS011;23227;48.780;9.210;2023-02-05T08:47:17;13.67;;;6.30;;
37047;SDS011;23227;48.780;9.210;2023-02-05T08:50:20;14.90;;;6.83;;
37047;SDS011;23227;48.780;9.210;2023-02-05T08:53:25;25.33;;;7.60;;
37047;SDS011;23227;48.780;9.210;2023-02-05T08:56:27;13.37;;;5.90;;
37047;SDS011;23227;48.780;9.210;2023-02-05T08:59:30;12.43;;;6.00;;
37047;SDS011;23227;48.780;9.210;2023-02-05T09:02:32;15.37;;;6.17;;
37047;SDS011;23227;48.780;9.210;2023-02-05T09:05:36;9.97;;;5.30;;
37047;SDS011;23227;48.780;9.210;2023-02-05T09:08:41;16.70;;;6.10;;
37047;SDS011;23227;48.780;9.210;2023-02-05T09:11:44;23.63;;;6.57;;
37047;SDS011;23227;48.780;9.210;2023-02-05T09:14:47;16.05;;;6.93;;
37047;SDS011;23227;48.780;9.210;2023-02-05T09:17:50;12.73;;;7.00;;
37047;SDS011;23227;48.780;9.210;2023-02-05T09:20:52;15.20;;;5.77;;
37047;SDS011;23227;48.780;9.210;2023-02-05T09:23:57;11.90;;;5.93;;
37047;SDS011;23227;48.780;9.210;2023-02-05T09:26:59;12.03;;;5.83;;
37047;SDS011;23227;48.780;9.210;2023-02-05T09:30:02;12.67;;;6.60;;
37047;SDS011;23227;48.780;9.210;2023-02-05T09:33:05;15.15;;;6.78;;
37047;SDS011;23227;48.780;9.210;2023-02-05T09:36:10;15.63;;;6.55;;
37047;SDS011;23227;48.780;9.210;2023-02-05T09:39:17;17.33;;;6.70;;
37047;SDS011;23227;48.780;9.210;2023-02-05T09:42:41;15.80;;;6.82;;
37047;SDS011;23227;48.780;9.210;2023-02-05T09:45:49;21.07;;;8.53;;
37047;SDS011;23227;48.780;9.210;2023-02-05T09:48:57;15.83;;;7.47;;
37047;SDS011;23227;48.780;9.210;2023-02-05T09:52:07;18.13;;;7.47;;
37047;SDS011;23227;48.780;9.210;2023-02-05T09:55:16;16.63;;;6.93;;
37047;SDS011;23227;48.780;9.210;2023-02-05T09:58:22;15.17;;;6.57;;
37047;SDS011;23227;48.780;9.210;2023-02-05T10:01:28;20.70;;;6.83;;
37047;SDS011;23227;48.780;9.210;2023-02-05T10:04:38;17.13;;;7.03;;
37047;SDS011;23227;48.780;9.210;2023-02-05T10:07:41;13.47;;;7.33;;
37047;SDS011;23227;48.780;9.210;2023-02-05T10:10:50;17.50;;;7.43;;
37047;SDS011;23227;48.780;9.210;2023-02-05T10:13:57;15.47;;;7.27;;
37047;SDS011;23227;48.780;9.210;2023-02-05T10:17:06;14.70;;;6.83;;
37047;SDS011;23227;48.780;9.210;2023-02-05T10:20:17;16.50;;;6.50;;
37047;SDS011;23227;48.780;9.210;2023-02-05T10:26:55;15.87;;;7.17;;
37047;SDS011;23227;48.780;9.210;2023-02-05T10:30:03;18.57;;;6.70;;
37047;SDS011;23227;48.780;9.210;2023-02-05T10:33:13;17.63;;;8.57;;
37047;SDS011;23227;48.780;9.210;2023-02-05T10:36:19;18.30;;;7.67;;
37047;SDS011;23227;48.780;9.210;2023-02-05T10:39:24;17.73;;;8.10;;
37047;SDS011;23227;48.780;9.210;2023-02-05T10:42:30;16.30;;;7.43;;
37047;SDS011;23227;48.780;9.210;2023-02-05T10:45:34;17.30;;;7.77;;
37047;SDS011;23227;48.780;9.210;2023-02-05T10:48:39;24.25;;;8.30;;
37047;SDS011;23227;48.780;9.210;2023-02-05T10:51:43;16.17;;;6.93;;
37047;SDS011;23227;48.780;9.210;2023-02-05T10:57:51;20.10;;;8.00;;
37047;SDS011;23227;48.780;9.210;2023-02-05T11:00:53;16.53;;;7.27;;
37047;SDS011;23227;48.780;9.210;2023-02-05T11:03:57;15.02;;;7.60;;
37047;SDS011;23227;48.780;9.210;2023-02-05T11:07:02;14.97;;;7.40;;
37047;SDS011;23227;48.780;9.210;2023-02-05T11:10:13;19.67;;;7.67;;
37047;SDS011;23227;48.780;9.210;2023-02-05T11:13:19;15.83;;;7.40;;
37047;SDS011;23227;48.780;9.210;2023-02-05T11:16:23;21.83;;;8.37;;
37047;SDS011;23227;48.780;9.210;2023-02-05T11:22:39;15.53;;;8.37;;
37047;SDS011;23227;48.780;9.210;2023-02-05T11:25:49;18.00;;;7.63;;
37047;SDS011;23227;48.780;9.210;2023-02-05T11:28:55;13.43;;;5.33;;
37047;SDS011;23227;48.780;9.210;2023-02-05T11:31:58;11.67;;;5.17;;
37047;SDS011;23227;48.780;9.210;2023-02-05T11:35:11;13.63;;;5.95;;
37047;SDS011;23227;48.780;9.210;2023-02-05T11:38:20;14.93;;;5.73;;
37047;SDS011;23227;48.780;9.210;2023-02-05T11:41:31;17.93;;;8.03;;
37047;SDS011;23227;48.780;9.210;2023-02-05T11:44:50;19.57;;;8.90;;
37047;SDS011;23227;48.780;9.210;2023-02-05T11:47:53;18.60;;;7.90;;
37047;SDS011;23227;48.780;9.210;2023-02-05T11:50:56;18.05;;;7.88;;
37047;SDS011;23227;48.780;9.210;2023-02-05T11:53:59;18.50;;;8.17;;
37047;SDS011;23227;48.780;9.210;2023-02-05T11:57:05;17.77;;;6.80;;
37047;SDS011;23227;48.780;9.210;2023-02-05T12:00:19;15.10;;;8.00;;
37047;SDS011;23227;48.780;9.210;2023-02-05T12:03:24;19.20;;;7.23;;
37047;SDS011;23227;48.780;9.210;2023-02-05T12:06:32;15.83;;;8.70;;
37047;SDS011;23227;48.780;9.210;2023-02-05T12:09:37;19.23;;;8.33;;
37047;SDS011;23227;48.780;9.210;2023-02-05T12:12:41;20.60;;;9.40;;
37047;SDS011;23227;48.780;9.210;2023-02-05T12:15:53;17.73;;;8.70;;
37047;SDS011;23227;48.780;9.210;2023-02-05T12:19:02;18.90;;;9.30;;
37047;SDS011;23227;48.780;9.210;2023-02-05T12:22:14;22.57;;;8.90;;
37047;SDS011;23227;48.780;9.210;2023-02-05T12:25:22;22.93;;;9.47;;
37047;SDS011;23227;48.780;9.210;2023-02-05T12:28:29;24.67;;;8.90;;
37047;SDS011;23227;48.780;9.210;2023-02-05T12:31:42;29.37;;;11.37;;
37047;SDS011;23227;48.780;9.210;2023-02-05T12:34:55;27.70;;;10.93;;
37047;SDS011;23227;48.780;9.210;2023-02-05T12:38:07;22.57;;;11.37;;
37047;SDS011;23227;48.780;9.210;2023-02-05T12:41:25;20.93;;;9.53;;
37047;SDS011;23227;48.780;9.210;2023-02-05T12:44:36;19.70;;;8.47;;
37047;SDS011;23227;48.780;9.210;2023-02-05T12:47:49;16.37;;;7.57;;
37047;SDS011;23227;48.780;9.210;2023-02-05T12:51:04;21.43;;;8.90;;
37047;SDS011;23227;48.780;9.210;2023-02-05T12:54:26;15.97;;;7.80;;
37047;SDS011;23227;48.780;9.210;2023-02-05T12:57:40;17.37;;;7.63;;
37047;SDS011;23227;48.780;9.210;2023-02-05T13:00:47;21.00;;;7.97;;
37047;SDS011;23227;48.780;9.210;2023-02-05T13:03:54;21.70;;;9.63;;
37047;SDS011;23227;48.780;9.210;2023-02-05T13:07:02;17.40;;;7.63;;
37047;SDS011;23227;48.780;9.210;2023-02-05T13:10:13;14.73;;;7.17;;
37047;SDS011;23227;48.780;9.210;2023-02-05T13:13:21;13.17;;;5.67;;
37047;SDS011;23227;48.780;9.210;2023-02-05T13:16:29;14.00;;;6.67;;
37047;SDS011;23227;48.780;9.210;2023-02-05T13:19:37;11.60;;;6.20;;
37047;SDS011;23227;48.780;9.210;2023-02-05T13:22:42;12.93;;;7.20;;
37047;SDS011;23227;48.780;9.210;2023-02-05T13:26:09;17.93;;;6.60;;
37047;SDS011;23227;48.780;9.210;2023-02-05T13:29:32;18.50;;;7.97;;
37047;SDS011;23227;48.780;9.210;2023-02-05T13:32:47;12.20;;;6.43;;
37047;SDS011;23227;48.780;9.210;2023-02-05T13:35:54;16.13;;;6.40;;
37047;SDS011;23227;48.780;9.210;2023-02-05T13:39:05;17.67;;;7.27;;
37047;SDS011;23227;48.780;9.210;2023-02-05T13:42:28;11.80;;;5.10;;
37047;SDS011;23227;48.780;9.210;2023-02-05T13:45:53;11.73;;;4.97;;
37047;SDS011;23227;48.780;9.210;2023-02-05T13:49:46;9.40;;;4.37;;
37047;SDS011;23227;48.780;9.210;2023-02-05T13:53:07;5.60;;;3.10;;
37047;SDS011;23227;48.780;9.210;2023-02-05T13:56:24;7.17;;;3.43;;
37047;SDS011;23227;48.780;9.210;2023-02-05T13:59:33;4.10;;;2.70;;
37047;SDS011;23227;48.780;9.210;2023-02-05T14:02:39;5.10;;;3.23;;
37047;SDS011;23227;48.780;9.210;2023-02-05T14:05:43;3.67;;;2.17;;
37047;SDS011;23227;48.780;9.210;2023-02-05T14:08:48;4.83;;;2.80;;
37047;SDS011;23227;48.780;9.210;2023-02-05T14:11:52;3.30;;;1.57;;
37047;SDS011;23227;48.780;9.210;2023-02-05T14:18:45;4.53;;;2.70;;
37047;SDS011;23227;48.780;9.210;2023-02-05T14:21:57;3.42;;;2.47;;
37047;SDS011;23227;48.780;9.210;2023-02-05T14:28:59;3.63;;;2.13;;
37047;SDS011;23227;48.780;9.210;2023-02-05T14:35:09;3.50;;;1.70;;
37047;SDS011;23227;48.780;9.210;2023-02-05T14:41:42;3.97;;;2.20;;
37047;SDS011;23227;48.780;9.210;2023-02-05T14:44:53;2.23;;;1.70;;
37047;SDS011;23227;48.780;9.210;2023-02-05T14:47:57;2.73;;;2.00;;
37047;SDS011;23227;48.780;9.210;2023-02-05T14:51:04;3.60;;;1.90;;
37047;SDS011;23227;48.780;9.210;2023-02-05T14:54:12;3.90;;;2.20;;
37047;SDS011;23227;48.780;9.210;2023-02-05T14:57:17;2.57;;;1.80;;
37047;SDS011;23227;48.780;9.210;2023-02-05T15:00:31;4.83;;;2.20;;
37047;SDS011;23227;48.780;9.210;2023-02-05T15:03:35;3.00;;;2.20;;
37047;SDS011;23227;48.780;9.210;2023-02-05T15:06:39;2.73;;;1.93;;
37047;SDS011;23227;48.780;9.210;2023-02-05T15:09:44;3.15;;;2.05;;
37047;SDS011;23227;48.780;9.210;2023-02-05T15:12:59;4.50;;;1.93;;
37047;SDS011;23227;48.780;9.210;2023-02-05T15:19:18;2.63;;;1.70;;
37047;SDS011;23227;48.780;9.210;2023-02-05T15:22:22;3.00;;;1.80;;
37047;SDS011;23227;48.780;9.210;2023-02-05T15:25:30;3.57;;;2.23;;
37047;SDS011;23227;48.780;9.210;2023-02-05T15:28:37;2.90;;;2.50;;
37047;SDS011;23227;48.780;9.210;2023-02-05T15:31:44;3.27;;;2.03;;
37047;SDS011;23227;48.780;9.210;2023-02-05T15:34:48;2.57;;;2.00;;
37047;SDS011;23227;48.780;9.210;2023-02-05T15:37:53;3.90;;;2.87;;
37047;SDS011;23227;48.780;9.210;2023-02-05T15:40:57;5.10;;;2.20;;
37047;SDS011;23227;48.780;9.210;2023-02-05T15:44:00;6.30;;;3.63;;
37047;SDS011;23227;48.780;9.210;2023-02-05T15:47:06;3.40;;;2.45;;
37047;SDS011;23227;48.780;9.210;2023-02-05T15:50:15;3.80;;;2.30;;
37047;SDS011;23227;48.780;9.210;2023-02-05T15:53:20;3.20;;;2.38;;
37047;SDS011;23227;48.780;9.210;2023-02-05T15:56:35;5.03;;;2.50;;
37047;SDS011;23227;48.780;9.210;2023-02-05T15:59:39;4.27;;;2.30;;
37047;SDS011;23227;48.780;9.210;2023-02-05T16:02:43;3.93;;;2.23;;
37047;SDS011;23227;48.780;9.210;2023-02-05T16:05:54;4.17;;;2.40;;
37047;SDS011;23227;48.780;9.210;2023-02-05T16:08:57;4.97;;;2.90;;
37047;SDS011;23227;48.780;9.210;2023-02-05T16:12:09;4.27;;;2.50;;
37047;SDS011;23227;48.780;9.210;2023-02-05T16:15:12;3.53;;;2.30;;
37047;SDS011;23227;48.780;9.210;2023-02-05T16:18:19;3.95;;;2.83;;
37047;SDS011;23227;48.780;9.210;2023-02-05T16:21:30;4.93;;;2.83;;
37047;SDS011;23227;48.780;9.210;2023-02-05T16:24:35;13.80;;;4.60;;
37047;SDS011;23227;48.780;9.210;2023-02-05T16:27:41;11.80;;;4.17;;
37047;SDS011;23227;48.780;9.210;2023-02-05T16:30:45;16.00;;;5.70;;
37047;SDS011;23227;48.780;9.210;2023-02-05T16:33:51;20.02;;;7.22;;
37047;SDS011;23227;48.780;9.210;2023-02-05T16:36:55;7.27;;;4.70;;
37047;SDS011;23227;48.780;9.210;2023-02-05T16:40:05;5.10;;;4.60;;
37047;SDS011;23227;48.780;9.210;2023-02-05T16:43:20;6.47;;;4.03;;
37047;SDS011;23227;48.780;9.210;2023-02-05T16:46:28;3.73;;;2.60;;
37047;SDS011;23227;48.780;9.210;2023-02-05T16:49:33;4.90;;;2.97;;
37047;SDS011;23227;48.780;9.210;2023-02-05T16:52:36;5.60;;;3.10;;
37047;SDS011;23227;48.780;9.210;2023-02-05T16:55:39;4.50;;;3.00;;
37047;SDS011;23227;48.780;9.210;2023-02-05T16:58:43;5.13;;;2.80;;
37047;SDS011;23227;48.780;9.210;2023-02-05T17:01:47;4.33;;;2.77;;
37047;SDS011;23227;48.780;9.210;2023-02-05T17:04:52;5.07;;;3.00;;
37047;SDS011;23227;48.780;9.210;2023-02-05T17:07:58;7.83;;;3.37;;
37047;SDS011;23227;48.780;9.210;2023-02-05T17:11:04;4.70;;;2.63;;
37047;SDS011;23227;48.780;9.210;2023-02-05T17:14:11;10.20;;;4.83;;
37047;SDS011;23227;48.780;9.210;2023-02-05T17:17:22;6.30;;;3.10;;
37047;SDS011;23227;48.780;9.210;2023-02-05T17:23:30;4.53;;;3.20;;
37047;SDS011;23227;48.780;9.210;2023-02-05T17:26:33;10.37;;;4.47;;
37047;SDS011;23227;48.780;9.210;2023-02-05T17:29:38;7.23;;;4.27;;
37047;SDS011;23227;48.780;9.210;2023-02-05T17:32:41;9.50;;;4.33;;
37047;SDS011;23227;48.780;9.210;2023-02-05T17:35:48;5.43;;;3.77;;
37047;SDS011;23227;48.780;9.210;2023-02-05T17:38:51;7.47;;;4.40;;
37047;SDS011;23227;48.780;9.210;2023-02-05T17:41:54;8.45;;;4.10;;
37047;SDS011;23227;48.780;9.210;2023-02-05T17:45:10;7.53;;;4.18;;
37047;SDS011;23227;48.780;9.210;2023-02-05T17:48:16;6.77;;;4.57;;
37047;SDS011;23227;48.780;9.210;2023-02-05T17:51:22;8.10;;;5.03;;
37047;SDS011;23227;48.780;9.210;2023-02-05T17:54:25;10.93;;;5.03;;
37047;SDS011;23227;48.780;9.210;2023-02-05T17:57:28;11.07;;;5.63;;
37047;SDS011;23227;48.780;9.210;2023-02-05T18:00:34;10.27;;;5.30;;
37047;SDS011;23227;48.780;9.210;2023-02-05T18:03:37;9.75;;;5.93;;
37047;SDS011;23227;48.780;9.210;2023-02-05T18:06:44;9.13;;;5.77;;
37047;SDS011;23227;48.780;9.210;2023-02-05T18:09:49;8.03;;;5.80;;
37047;SDS011;23227;48.780;9.210;2023-02-05T18:12:52;8.10;;;5.37;;
37047;SDS011;23227;48.780;9.210;2023-02-05T18:15:55;8.68;;;6.00;;
37047;SDS011;23227;48.780;9.210;2023-02-05T18:19:03;8.10;;;5.07;;
37047;SDS011;23227;48.780;9.210;2023-02-05T18:22:08;8.38;;;5.07;;
37047;SDS011;23227;48.780;9.210;2023-02-05T18:28:13;5.60;;;3.27;;
37047;SDS011;23227;48.780;9.210;2023-02-05T18:31:15;6.57;;;3.87;;
37047;SDS011;23227;48.780;9.210;2023-02-05T18:34:19;6.60;;;3.60;;
37047;SDS011;23227;48.780;9.210;2023-02-05T18:37:23;3.90;;;3.23;;
37047;SDS011;23227;48.780;9.210;2023-02-05T18:40:26;5.83;;;3.60;;
37047;SDS011;23227;48.780;9.210;2023-02-05T18:43:29;4.87;;;3.43;;
37047;SDS011;23227;48.780;9.210;2023-02-05T18:46:32;3.90;;;3.40;;
37047;SDS011;23227;48.780;9.210;2023-02-05T18:49:35;7.45;;;3.60;;
37047;SDS011;23227;48.780;9.210;2023-02-05T18:52:39;4.37;;;3.17;;
37047;SDS011;23227;48.780;9.210;2023-02-05T18:58:48;5.00;;;3.03;;
37047;SDS011;23227;48.780;9.210;2023-02-05T19:01:52;4.47;;;3.17;;
37047;SDS011;23227;48.780;9.210;2023-02-05T19:04:55;4.13;;;3.10;;
37047;SDS011;23227;48.780;9.210;2023-02-05T19:07:59;4.03;;;3.40;;
37047;SDS011;23227;48.780;9.210;2023-02-05T19:11:07;6.67;;;4.10;;
37047;SDS011;23227;48.780;9.210;2023-02-05T19:14:10;7.40;;;3.63;;
37047;SDS011;23227;48.780;9.210;2023-02-05T19:17:15;4.50;;;3.07;;
37047;SDS011;23227;48.780;9.210;2023-02-05T19:20:18;5.68;;;3.88;;